Time;durP1;ratioP1;P1;durP2;ratioP2;P2;SDS_P1;SDS_P2;PMS_P1;PMS_P2;Temp;Humidity;BMP_temperature;BMP_pressure;BME280_temperature;BME280_humidity;BME280_pressure;Samples;Min_cycle;Max_cycle;Signal;HPM_P1;HPM_P2
2023/10/18 00:00:43;;;;;;;7.93;2.95;;;;;;;;;;4997797;28;20045;-38
2023/10/18 00:03:11;;;;;;;7.05;2.70;;;;;;;;;;5013146;28;20037;-39
2023/10/18 00:05:41;;;;;;;10.73;2.80;;;;;;;;;;5005720;28;20476;-39
2023/10/18 00:08:09;;;;;;;14.63;2.30;;;;;;;;;;5010964;28;20045;-38
2023/10/18 00:10:37;;;;;;;8.93;2.80;;;;;;;;;;5004995;28;20484;-39
2023/10/18 00:13:06;;;;;;;11.60;2.50;;;;;;;;;;5001196;28;20049;-39
2023/10/18 00:15:35;;;;;;;9.98;2.42;;;;;;;;;;5008255;28;20041;-39
2023/10/18 00:18:03;;;;;;;7.23;2.60;;;;;;;;;;5001689;28;20203;-38
2023/10/18 00:20:31;;;;;;;9.65;2.88;;;;;;;;;;5007124;28;20068;-38
2023/10/18 00:22:58;;;;;;;10.85;2.17;;;;;;;;;;4995702;28;20113;-38
2023/10/18 00:25:26;;;;;;;11.13;2.30;;;;;;;;;;5006662;28;20489;-38
2023/10/18 00:27:54;;;;;;;8.07;2.13;;;;;;;;;;5003049;28;20051;-38
2023/10/18 00:30:22;;;;;;;7.07;2.53;;;;;;;;;;5001899;28;20132;-38
2023/10/18 00:32:51;;;;;;;7.40;2.42;;;;;;;;;;5003560;28;20882;-38
2023/10/18 00:35:20;;;;;;;7.75;2.60;;;;;;;;;;5001662;28;20439;-38
2023/10/18 00:37:50;;;;;;;8.00;2.50;;;;;;;;;;5014252;28;20148;-38
2023/10/18 00:40:32;;;;;;;10.40;2.83;;;;;;;;;;5006393;28;20427;-38
2023/10/18 00:43:07;;;;;;;8.63;2.80;;;;;;;;;;5017543;28;20040;-38
2023/10/18 00:45:39;;;;;;;11.85;2.38;;;;;;;;;;5003274;28;20037;-38
2023/10/18 00:48:08;;;;;;;8.55;2.42;;;;;;;;;;4990988;28;20053;-38
2023/10/18 00:50:38;;;;;;;8.18;1.95;;;;;;;;;;5000796;28;20060;-38
2023/10/18 00:53:06;;;;;;;7.72;2.15;;;;;;;;;;5008713;28;20440;-38
2023/10/18 00:55:33;;;;;;;9.97;3.10;;;;;;;;;;5008628;28;20034;-38
2023/10/18 00:58:05;;;;;;;11.68;3.70;;;;;;;;;;5005354;28;20273;-38
2023/10/18 01:00:33;;;;;;;10.45;2.80;;;;;;;;;;5008855;28;20061;-39
2023/10/18 01:03:06;;;;;;;8.23;2.40;;;;;;;;;;4992057;28;20038;-38
2023/10/18 01:05:36;;;;;;;9.63;2.45;;;;;;;;;;5012035;28;20044;-38
2023/10/18 01:08:06;;;;;;;9.77;2.83;;;;;;;;;;4992032;28;20042;-38
2023/10/18 01:10:37;;;;;;;9.75;2.28;;;;;;;;;;5007435;28;20052;-38
2023/10/18 01:13:06;;;;;;;8.20;2.30;;;;;;;;;;5000727;28;20045;-38
2023/10/18 01:15:34;;;;;;;10.93;2.35;;;;;;;;;;4992961;28;20057;-38
2023/10/18 01:18:02;;;;;;;8.52;2.40;;;;;;;;;;4997942;28;20076;-38
2023/10/18 01:20:33;;;;;;;7.93;2.20;;;;;;;;;;4998175;28;20095;-38
2023/10/18 01:23:03;;;;;;;6.90;2.03;;;;;;;;;;4985481;28;20056;-38
2023/10/18 01:25:34;;;;;;;10.80;2.40;;;;;;;;;;5005826;28;20037;-39
2023/10/18 01:28:01;;;;;;;8.10;2.30;;;;;;;;;;5000592;28;20651;-38
2023/10/18 01:30:30;;;;;;;9.88;2.30;;;;;;;;;;4999988;28;20041;-38
2023/10/18 01:32:57;;;;;;;6.47;2.27;;;;;;;;;;5002674;28;20053;-38
2023/10/18 01:35:26;;;;;;;9.45;2.50;;;;;;;;;;5015085;28;20048;-38
2023/10/18 01:37:54;;;;;;;7.47;2.20;;;;;;;;;;4999148;28;20083;-40
2023/10/18 01:40:30;;;;;;;13.00;2.00;;;;;;;;;;5010267;28;20033;-38
2023/10/18 01:43:10;;;;;;;11.70;2.60;;;;;;;;;;4996890;28;20100;-38
2023/10/18 01:45:39;;;;;;;9.30;2.57;;;;;;;;;;5006978;28;20592;-38
2023/10/18 01:48:09;;;;;;;9.15;2.35;;;;;;;;;;5019313;28;20037;-38
2023/10/18 01:50:39;;;;;;;8.13;2.85;;;;;;;;;;5000578;28;20112;-38
2023/10/18 01:53:15;;;;;;;12.13;2.58;;;;;;;;;;5009130;28;20141;-38
2023/10/18 01:55:47;;;;;;;6.75;1.70;;;;;;;;;;5009369;28;20592;-38
2023/10/18 01:58:16;;;;;;;8.20;2.47;;;;;;;;;;5006460;28;21239;-39
2023/10/18 02:00:46;;;;;;;12.60;2.83;;;;;;;;;;5008505;28;20040;-38
2023/10/18 02:03:14;;;;;;;8.95;2.60;;;;;;;;;;5003358;28;20049;-39
2023/10/18 02:05:43;;;;;;;10.75;2.35;;;;;;;;;;5008777;28;20514;-38
2023/10/18 02:08:11;;;;;;;7.90;2.15;;;;;;;;;;5012425;28;20057;-39
2023/10/18 02:10:42;;;;;;;9.97;2.63;;;;;;;;;;5004738;28;20042;-38
2023/10/18 02:13:11;;;;;;;8.20;2.72;;;;;;;;;;5008059;28;20048;-38
2023/10/18 02:15:40;;;;;;;7.03;2.33;;;;;;;;;;5012950;28;20060;-38
2023/10/18 02:18:08;;;;;;;8.82;2.50;;;;;;;;;;5006106;28;20052;-38
2023/10/18 02:20:37;;;;;;;8.48;2.95;;;;;;;;;;5001098;28;20238;-38
2023/10/18 02:23:11;;;;;;;11.43;3.17;;;;;;;;;;5015886;28;20408;-38
2023/10/18 02:25:44;;;;;;;11.02;2.95;;;;;;;;;;4993230;28;20459;-38
2023/10/18 02:28:22;;;;;;;9.38;2.30;;;;;;;;;;5011273;28;20128;-38
2023/10/18 02:30:58;;;;;;;9.00;2.10;;;;;;;;;;5005987;28;20052;-38
2023/10/18 02:33:33;;;;;;;9.00;2.65;;;;;;;;;;5006530;28;20049;-39
2023/10/18 02:36:05;;;;;;;8.10;2.37;;;;;;;;;;5004433;28;20045;-38
2023/10/18 02:38:34;;;;;;;8.90;2.25;;;;;;;;;;5007587;28;20373;-38
2023/10/18 02:41:13;;;;;;;7.18;2.33;;;;;;;;;;5006809;28;20043;-38
2023/10/18 02:43:45;;;;;;;8.80;2.83;;;;;;;;;;4997892;28;20461;-38
2023/10/18 02:46:16;;;;;;;10.23;2.47;;;;;;;;;;5000665;28;20045;-38
2023/10/18 02:48:47;;;;;;;7.77;2.50;;;;;;;;;;5004321;28;20415;-38
2023/10/18 02:51:22;;;;;;;9.18;2.90;;;;;;;;;;5009684;28;20258;-38
2023/10/18 02:53:51;;;;;;;8.25;2.65;;;;;;;;;;5009596;28;20480;-38
2023/10/18 02:56:26;;;;;;;11.32;2.90;;;;;;;;;;4999419;28;20037;-38
2023/10/18 02:58:57;;;;;;;12.00;2.92;;;;;;;;;;5002210;28;20037;-38
2023/10/18 03:01:26;;;;;;;10.13;2.80;;;;;;;;;;5010742;28;20567;-39
2023/10/18 03:03:55;;;;;;;9.65;2.83;;;;;;;;;;5008286;28;20041;-38
2023/10/18 03:06:25;;;;;;;9.05;2.97;;;;;;;;;;5001146;28;20052;-38
2023/10/18 03:08:57;;;;;;;13.35;3.13;;;;;;;;;;5010992;28;20034;-38
2023/10/18 03:11:25;;;;;;;10.75;3.13;;;;;;;;;;5005719;28;20037;-38
2023/10/18 03:13:57;;;;;;;9.50;2.77;;;;;;;;;;5010830;28;20034;-38
2023/10/18 03:16:39;;;;;;;9.15;2.50;;;;;;;;;;4998823;28;20047;-38
2023/10/18 03:19:12;;;;;;;24.58;3.20;;;;;;;;;;5006657;28;20077;-38
2023/10/18 03:21:41;;;;;;;8.70;2.88;;;;;;;;;;5000830;28;20056;-38
2023/10/18 03:24:12;;;;;;;8.88;3.42;;;;;;;;;;5012178;28;20069;-38
2023/10/18 03:26:40;;;;;;;10.03;2.33;;;;;;;;;;5023622;28;20048;-39
2023/10/18 03:29:12;;;;;;;11.55;2.78;;;;;;;;;;4991759;28;20353;-38
2023/10/18 03:31:43;;;;;;;8.88;2.80;;;;;;;;;;5021549;28;20041;-38
2023/10/18 03:34:16;;;;;;;9.73;3.03;;;;;;;;;;5003292;28;20045;-38
2023/10/18 03:36:51;;;;;;;12.48;3.63;;;;;;;;;;5010924;28;20599;-38
2023/10/18 03:39:20;;;;;;;10.73;2.90;;;;;;;;;;5007691;28;20052;-38
2023/10/18 03:41:50;;;;;;;9.85;2.50;;;;;;;;;;5009738;28;20045;-39
2023/10/18 03:44:21;;;;;;;7.35;2.08;;;;;;;;;;5002991;28;20045;-38
2023/10/18 03:46:55;;;;;;;10.27;2.85;;;;;;;;;;5005526;28;20048;-38
2023/10/18 03:49:30;;;;;;;10.05;2.92;;;;;;;;;;4979173;28;20037;-39
2023/10/18 03:52:07;;;;;;;11.13;3.07;;;;;;;;;;5011390;28;20039;-38
2023/10/18 03:54:45;;;;;;;9.15;2.72;;;;;;;;;;5006682;28;20723;-38
2023/10/18 03:57:19;;;;;;;8.52;2.30;;;;;;;;;;5023898;28;20500;-38
2023/10/18 03:59:47;;;;;;;9.45;2.20;;;;;;;;;;5005620;28;20452;-38
2023/10/18 04:02:26;;;;;;;7.93;2.55;;;;;;;;;;5014289;28;20041;-38
2023/10/18 04:04:59;;;;;;;10.47;2.90;;;;;;;;;;5018620;28;20048;-38
2023/10/18 04:07:29;;;;;;;12.27;2.47;;;;;;;;;;5010925;28;20806;-38
2023/10/18 04:10:11;;;;;;;7.47;2.78;;;;;;;;;;5009927;28;20033;-38
2023/10/18 04:12:40;;;;;;;12.00;2.90;;;;;;;;;;5003618;28;20041;-38
2023/10/18 04:15:19;;;;;;;11.98;2.72;;;;;;;;;;5033118;28;20488;-38
2023/10/18 04:17:49;;;;;;;15.17;2.80;;;;;;;;;;5002530;28;20060;-38
2023/10/18 04:20:23;;;;;;;9.70;2.80;;;;;;;;;;5014850;28;21957;-38
2023/10/18 04:22:52;;;;;;;13.38;3.10;;;;;;;;;;5005839;28;20427;-40
2023/10/18 04:25:26;;;;;;;7.88;2.75;;;;;;;;;;5015294;28;20451;-38
2023/10/18 04:27:54;;;;;;;8.85;2.50;;;;;;;;;;5004630;28;20048;-38
2023/10/18 04:30:23;;;;;;;9.33;2.90;;;;;;;;;;5003175;28;20499;-38
2023/10/18 04:32:54;;;;;;;8.18;2.65;;;;;;;;;;5013237;28;20049;-38
2023/10/18 04:35:29;;;;;;;14.52;3.22;;;;;;;;;;5016935;28;20045;-38
2023/10/18 04:37:56;;;;;;;9.07;2.67;;;;;;;;;;5001705;28;20044;-39
2023/10/18 04:40:26;;;;;;;11.82;2.45;;;;;;;;;;5009260;28;20041;-38
2023/10/18 04:42:55;;;;;;;9.57;2.50;;;;;;;;;;5007413;28;20913;-38
2023/10/18 04:45:24;;;;;;;14.13;3.42;;;;;;;;;;5015763;28;20128;-38
2023/10/18 04:48:05;;;;;;;14.13;3.05;;;;;;;;;;5007114;28;20413;-38
2023/10/18 04:50:33;;;;;;;9.30;2.88;;;;;;;;;;5009654;28;20053;-38
2023/10/18 04:53:09;;;;;;;11.65;2.63;;;;;;;;;;5000756;28;20053;-38
2023/10/18 04:55:41;;;;;;;11.30;3.10;;;;;;;;;;5008804;28;20049;-38
2023/10/18 04:58:10;;;;;;;8.93;2.88;;;;;;;;;;5000398;28;20128;-38
2023/10/18 05:00:56;;;;;;;8.68;2.45;;;;;;;;;;5002952;28;20048;-38
2023/10/18 05:03:30;;;;;;;10.93;2.97;;;;;;;;;;5014012;28;20099;-38
2023/10/18 05:05:58;;;;;;;9.57;3.28;;;;;;;;;;5001539;28;20121;-38
2023/10/18 05:08:29;;;;;;;12.47;2.97;;;;;;;;;;4998819;28;20038;-38
2023/10/18 05:11:22;;;;;;;12.13;3.25;;;;;;;;;;5018304;28;20034;-38
2023/10/18 05:13:46;;;;;;;11.65;3.53;;;;;;;;;;4997260;28;20029;-38
2023/10/18 05:16:13;;;;;;;12.68;3.00;;;;;;;;;;4995763;28;20037;-39
2023/10/18 05:18:44;;;;;;;10.95;2.50;;;;;;;;;;4999829;28;20597;-38
2023/10/18 05:21:20;;;;;;;11.37;3.10;;;;;;;;;;5003863;28;20120;-38
2023/10/18 05:23:50;;;;;;;8.25;2.80;;;;;;;;;;5002690;28;20034;-38
2023/10/18 05:26:18;;;;;;;12.10;3.45;;;;;;;;;;4999552;28;20037;-38
2023/10/18 05:28:49;;;;;;;10.82;3.15;;;;;;;;;;5000766;28;20038;-38
2023/10/18 05:31:43;;;;;;;12.07;2.90;;;;;;;;;;5000383;28;20137;-38
2023/10/18 05:34:22;;;;;;;9.07;2.97;;;;;;;;;;4992500;28;20049;-38
2023/10/18 05:36:55;;;;;;;10.68;3.35;;;;;;;;;;5001823;28;20805;-38
2023/10/18 05:39:48;;;;;;;10.25;2.95;;;;;;;;;;5001224;28;20045;-38
2023/10/18 05:42:20;;;;;;;8.40;2.75;;;;;;;;;;4988132;28;20569;-39
2023/10/18 05:44:49;;;;;;;11.40;3.08;;;;;;;;;;4996850;28;20037;-41
2023/10/18 05:47:16;;;;;;;14.43;2.93;;;;;;;;;;4994900;28;20045;-38
2023/10/18 05:49:46;;;;;;;8.20;2.53;;;;;;;;;;5003930;28;20627;-38
2023/10/18 05:52:36;;;;;;;14.45;2.95;;;;;;;;;;4999523;28;20049;-39
2023/10/18 05:55:08;;;;;;;12.23;3.15;;;;;;;;;;4991913;28;20408;-38
2023/10/18 05:57:45;;;;;;;11.13;3.17;;;;;;;;;;4996039;28;20048;-38
2023/10/18 06:00:18;;;;;;;13.73;3.33;;;;;;;;;;5006868;28;20566;-38
2023/10/18 06:02:45;;;;;;;12.50;3.60;;;;;;;;;;5001195;28;20044;-38
2023/10/18 06:05:15;;;;;;;11.02;3.30;;;;;;;;;;5003980;28;20055;-39
2023/10/18 06:07:42;;;;;;;8.52;3.00;;;;;;;;;;5001868;28;20046;-39
2023/10/18 06:10:16;;;;;;;10.93;3.45;;;;;;;;;;5000567;28;20045;-39
2023/10/18 06:12:48;;;;;;;11.67;3.27;;;;;;;;;;4990822;28;20048;-39
2023/10/18 06:15:30;;;;;;;9.93;3.55;;;;;;;;;;5007741;28;20045;-39
2023/10/18 06:17:58;;;;;;;14.25;3.47;;;;;;;;;;4994860;28;20496;-39
2023/10/18 06:20:28;;;;;;;8.27;2.85;;;;;;;;;;4999679;28;20052;-39
2023/10/18 06:23:09;;;;;;;11.63;3.72;;;;;;;;;;5009503;28;20037;-39
2023/10/18 06:25:44;;;;;;;12.17;3.47;;;;;;;;;;4995639;28;23927;-39
2023/10/18 06:28:19;;;;;;;11.10;2.80;;;;;;;;;;4993105;28;20057;-41
2023/10/18 06:30:50;;;;;;;9.48;3.30;;;;;;;;;;5014820;28;20411;-38
2023/10/18 06:33:19;;;;;;;12.27;3.30;;;;;;;;;;4993513;28;20045;-38
2023/10/18 06:35:52;;;;;;;11.90;3.05;;;;;;;;;;5011521;28;20042;-38
2023/10/18 06:38:22;;;;;;;9.57;3.40;;;;;;;;;;4984590;28;21064;-40
2023/10/18 06:40:53;;;;;;;8.27;3.17;;;;;;;;;;5008552;28;20046;-39
2023/10/18 06:43:33;;;;;;;13.55;3.50;;;;;;;;;;4993321;28;20049;-40
2023/10/18 06:46:00;;;;;;;11.00;3.70;;;;;;;;;;5007110;28;20061;-40
2023/10/18 06:48:30;;;;;;;11.45;3.88;;;;;;;;;;4994311;28;20055;-39
2023/10/18 06:51:01;;;;;;;12.07;3.40;;;;;;;;;;5002989;28;20099;-39
2023/10/18 06:53:29;;;;;;;10.27;3.47;;;;;;;;;;4999987;28;20092;-39
2023/10/18 06:55:58;;;;;;;13.02;3.92;;;;;;;;;;5007335;28;20034;-40
2023/10/18 07:01:19;;;;;;;10.60;3.83;;;;;;;;;;4989386;28;20512;-39
2023/10/18 07:03:48;;;;;;;11.40;3.80;;;;;;;;;;5019284;28;20029;-41
2023/10/18 07:06:18;;;;;;;13.48;4.00;;;;;;;;;;4973981;28;20207;-40
2023/10/18 07:08:49;;;;;;;10.50;3.58;;;;;;;;;;5001005;28;20041;-40
2023/10/18 07:11:22;;;;;;;11.43;3.25;;;;;;;;;;5003746;28;20520;-40
2023/10/18 07:14:12;;;;;;;16.02;4.30;;;;;;;;;;4998297;28;20033;-39
2023/10/18 07:16:41;;;;;;;11.67;3.93;;;;;;;;;;4996422;28;20049;-39
2023/10/18 07:19:24;;;;;;;21.17;4.32;;;;;;;;;;5001974;28;20530;-38
2023/10/18 07:21:55;;;;;;;14.45;3.53;;;;;;;;;;5000360;28;20508;-39
2023/10/18 07:24:24;;;;;;;11.23;3.58;;;;;;;;;;4999292;28;20559;-39
2023/10/18 07:26:53;;;;;;;14.50;3.60;;;;;;;;;;5004400;28;20045;-39
2023/10/18 07:29:21;;;;;;;12.03;3.60;;;;;;;;;;5000664;28;20517;-39
2023/10/18 07:31:49;;;;;;;14.63;3.42;;;;;;;;;;5005746;28;20041;-39
2023/10/18 07:34:28;;;;;;;11.65;4.05;;;;;;;;;;4995966;28;20057;-39
2023/10/18 07:37:00;;;;;;;13.13;3.50;;;;;;;;;;5002328;28;20064;-38
2023/10/18 07:39:32;;;;;;;12.50;3.95;;;;;;;;;;5001593;28;20416;-38
2023/10/18 07:42:05;;;;;;;15.13;3.90;;;;;;;;;;4999657;28;20045;-40
2023/10/18 07:44:32;;;;;;;14.70;3.40;;;;;;;;;;4655021;28;10000576;-40
2023/10/18 07:47:00;;;;;;;11.43;3.73;;;;;;;;;;4997743;28;20301;-37
2023/10/18 07:49:31;;;;;;;12.00;3.45;;;;;;;;;;4999347;28;20037;-38
2023/10/18 07:52:00;;;;;;;13.63;3.75;;;;;;;;;;5008754;28;20040;-39
2023/10/18 07:54:28;;;;;;;11.38;3.95;;;;;;;;;;4997856;28;20049;-39
2023/10/18 07:56:56;;;;;;;14.32;3.78;;;;;;;;;;5006377;28;20045;-38
2023/10/18 07:59:30;;;;;;;12.77;3.97;;;;;;;;;;4998346;28;20048;-39
2023/10/18 08:02:14;;;;;;;13.60;3.90;;;;;;;;;;5007032;28;20119;-40
2023/10/18 08:04:44;;;;;;;11.45;3.97;;;;;;;;;;4986088;28;20081;-38
2023/10/18 08:07:16;;;;;;;14.75;4.28;;;;;;;;;;5002149;28;21016;-39
2023/10/18 08:09:44;;;;;;;16.05;4.43;;;;;;;;;;4998693;28;20535;-38
2023/10/18 08:12:22;;;;;;;13.27;4.00;;;;;;;;;;4657662;28;10000433;-38
2023/10/18 08:14:50;;;;;;;10.70;3.45;;;;;;;;;;4959959;28;20486;-38
2023/10/18 08:17:42;;;;;;;17.37;3.97;;;;;;;;;;4960114;28;20052;-38
2023/10/18 08:23:14;;;;;;;12.98;4.78;;;;;;;;;;5001145;28;20052;-38
2023/10/18 08:25:48;;;;;;;12.18;3.80;;;;;;;;;;4967362;28;20376;-38
2023/10/18 08:28:16;;;;;;;12.48;4.20;;;;;;;;;;4962452;28;20055;-39
2023/10/18 08:33:26;;;;;;;14.98;4.85;;;;;;;;;;4978027;28;20465;-39
2023/10/18 08:35:58;;;;;;;13.38;4.03;;;;;;;;;;5002094;28;20041;-38
2023/10/18 08:38:28;;;;;;;13.02;4.30;;;;;;;;;;4981132;28;20530;-38
2023/10/18 08:41:11;;;;;;;11.30;4.53;;;;;;;;;;4989253;28;20044;-38
2023/10/18 08:43:44;;;;;;;10.63;3.93;;;;;;;;;;4984975;28;20495;-38
2023/10/18 08:46:12;;;;;;;13.00;3.92;;;;;;;;;;4989254;28;20056;-42
2023/10/18 08:48:42;;;;;;;12.38;4.55;;;;;;;;;;4989276;28;20488;-38
2023/10/18 08:51:11;;;;;;;15.57;4.32;;;;;;;;;;4996972;28;20114;-38
2023/10/18 08:53:42;;;;;;;14.15;4.70;;;;;;;;;;4993893;28;20097;-39
2023/10/18 08:56:10;;;;;;;14.97;4.83;;;;;;;;;;4990555;28;20037;-39
2023/10/18 08:58:37;;;;;;;15.30;4.90;;;;;;;;;;4949413;28;20288;-38
2023/10/18 09:01:05;;;;;;;15.00;4.63;;;;;;;;;;4993417;28;20049;-38
2023/10/18 09:03:35;;;;;;;15.07;4.47;;;;;;;;;;4972606;28;20348;-39
2023/10/18 09:06:04;;;;;;;12.48;4.60;;;;;;;;;;4989168;28;20049;-39
2023/10/18 09:08:37;;;;;;;13.47;4.97;;;;;;;;;;4991663;28;20929;-39
2023/10/18 09:11:09;;;;;;;13.38;5.25;;;;;;;;;;4985488;28;20503;-38
2023/10/18 09:13:41;;;;;;;16.02;4.72;;;;;;;;;;4991806;28;20440;-39
2023/10/18 09:16:11;;;;;;;15.32;5.80;;;;;;;;;;4991941;28;20416;-38
2023/10/18 09:18:39;;;;;;;13.13;5.93;;;;;;;;;;4991870;28;20061;-38
2023/10/18 09:21:17;;;;;;;15.77;4.97;;;;;;;;;;4995535;28;20523;-38
2023/10/18 09:23:47;;;;;;;15.00;5.55;;;;;;;;;;4988295;28;20500;-39
2023/10/18 09:26:26;;;;;;;13.80;5.72;;;;;;;;;;4990588;28;20052;-38
2023/10/18 09:28:56;;;;;;;12.55;4.38;;;;;;;;;;4987159;28;20439;-38
2023/10/18 09:31:23;;;;;;;14.63;5.18;;;;;;;;;;5001856;28;20886;-40
2023/10/18 09:33:52;;;;;;;19.20;6.40;;;;;;;;;;4986836;28;20041;-38
2023/10/18 09:36:23;;;;;;;15.40;5.35;;;;;;;;;;4991119;28;20932;-38
2023/10/18 09:38:52;;;;;;;17.05;6.35;;;;;;;;;;4994345;28;21571;-39
2023/10/18 09:41:22;;;;;;;20.75;6.82;;;;;;;;;;4993086;28;20353;-39
2023/10/18 09:43:49;;;;;;;16.95;4.63;;;;;;;;;;4985476;28;20381;-39
2023/10/18 09:46:18;;;;;;;10.87;4.23;;;;;;;;;;4992648;28;20049;-39
2023/10/18 09:48:46;;;;;;;21.05;5.47;;;;;;;;;;5002153;28;20590;-39
2023/10/18 09:51:15;;;;;;;11.88;2.85;;;;;;;;;;4994516;28;20049;-39
2023/10/18 09:53:44;;;;;;;15.73;6.32;;;;;;;;;;4985656;28;20056;-38
2023/10/18 09:56:13;;;;;;;12.07;4.45;;;;;;;;;;4988672;28;20041;-39
2023/10/18 09:58:44;;;;;;;14.83;5.93;;;;;;;;;;5000515;28;20045;-38
2023/10/18 10:01:25;;;;;;;17.52;6.35;;;;;;;;;;4991089;28;20049;-38
2023/10/18 10:03:56;;;;;;;14.45;5.10;;;;;;;;;;4984389;28;20457;-39
2023/10/18 10:06:24;;;;;;;12.32;5.80;;;;;;;;;;4995215;28;20422;-38
2023/10/18 10:08:55;;;;;;;23.58;8.10;;;;;;;;;;4993537;28;20041;-39
2023/10/18 10:11:29;;;;;;;16.50;6.50;;;;;;;;;;4995082;28;20054;-39
2023/10/18 10:14:00;;;;;;;15.48;6.95;;;;;;;;;;4290045;28;10000641;-40
2023/10/18 10:16:30;;;;;;;14.18;6.35;;;;;;;;;;4995487;28;20483;-38
2023/10/18 10:19:04;;;;;;;15.40;6.50;;;;;;;;;;4993395;28;20064;-39
2023/10/18 10:21:34;;;;;;;15.05;7.07;;;;;;;;;;4991687;28;20049;-40
2023/10/18 10:24:29;;;;;;;19.27;7.30;;;;;;;;;;4990059;28;20140;-39
2023/10/18 10:27:21;;;;;;;19.77;7.65;;;;;;;;;;4985564;28;20554;-38
2023/10/18 10:29:56;;;;;;;15.63;7.07;;;;;;;;;;4981217;28;20144;-38
2023/10/18 10:32:27;;;;;;;18.25;8.77;;;;;;;;;;4978311;28;20045;-38
2023/10/18 10:35:11;;;;;;;19.88;8.50;;;;;;;;;;4984002;28;20132;-39
2023/10/18 10:37:46;;;;;;;19.80;7.70;;;;;;;;;;4996062;28;20450;-39
2023/10/18 10:40:35;;;;;;;23.00;7.85;;;;;;;;;;4991115;28;20181;-39
2023/10/18 10:43:04;;;;;;;21.40;7.65;;;;;;;;;;4986162;28;20132;-38
2023/10/18 10:45:38;;;;;;;20.98;8.45;;;;;;;;;;4996341;28;20156;-39
2023/10/18 10:48:30;;;;;;;20.27;8.23;;;;;;;;;;4990902;28;20045;-39
2023/10/18 10:51:06;;;;;;;17.03;8.27;;;;;;;;;;4999557;28;20052;-38
2023/10/18 10:53:43;;;;;;;19.55;8.27;;;;;;;;;;4987313;28;20419;-38
2023/10/18 10:56:30;;;;;;;20.92;8.77;;;;;;;;;;4993110;28;20070;-38
2023/10/18 10:59:15;;;;;;;21.70;8.68;;;;;;;;;;4991044;28;20053;-38
2023/10/18 11:02:07;;;;;;;19.05;9.00;;;;;;;;;;4991589;28;20586;-39
2023/10/18 11:04:50;;;;;;;23.50;9.73;;;;;;;;;;4986375;28;20045;-40
2023/10/18 11:07:24;;;;;;;20.10;8.60;;;;;;;;;;4992424;28;20046;-39
2023/10/18 11:09:59;;;;;;;24.25;10.13;;;;;;;;;;4992152;28;20051;-38
2023/10/18 11:12:29;;;;;;;20.20;9.73;;;;;;;;;;4995858;28;20054;-39
2023/10/18 11:15:00;;;;;;;24.83;10.00;;;;;;;;;;4986421;28;20594;-38
2023/10/18 11:17:29;;;;;;;28.73;10.50;;;;;;;;;;4990663;28;20041;-38
2023/10/18 11:19:58;;;;;;;23.30;10.68;;;;;;;;;;4993410;28;20056;-39
2023/10/18 11:22:29;;;;;;;26.73;10.45;;;;;;;;;;4993464;28;20068;-38
2023/10/18 11:25:00;;;;;;;25.08;10.73;;;;;;;;;;4990026;28;20041;-38
2023/10/18 11:27:33;;;;;;;25.58;10.32;;;;;;;;;;4987959;28;20041;-39
2023/10/18 11:30:15;;;;;;;24.20;10.83;;;;;;;;;;4992604;28;20504;-39
2023/10/18 11:32:46;;;;;;;27.15;10.43;;;;;;;;;;4997697;28;20060;-38
2023/10/18 11:35:18;;;;;;;24.33;11.07;;;;;;;;;;4979528;28;20447;-38
2023/10/18 11:37:47;;;;;;;25.92;10.05;;;;;;;;;;4999581;28;20076;-39
2023/10/18 11:40:16;;;;;;;21.73;10.10;;;;;;;;;;4985854;28;20051;-39
2023/10/18 11:42:51;;;;;;;24.53;10.87;;;;;;;;;;4999947;28;20569;-38
2023/10/18 11:45:27;;;;;;;24.05;10.68;;;;;;;;;;4986778;28;20068;-39
2023/10/18 11:47:59;;;;;;;29.02;11.00;;;;;;;;;;4998046;28;20424;-38
2023/10/18 11:50:38;;;;;;;23.63;10.15;;;;;;;;;;4988802;28;20048;-39
2023/10/18 11:53:12;;;;;;;22.80;10.25;;;;;;;;;;4976645;28;20053;-38
2023/10/18 11:55:54;;;;;;;25.27;9.80;;;;;;;;;;4994388;28;20036;-38
2023/10/18 11:58:22;;;;;;;26.20;11.07;;;;;;;;;;4990433;28;20045;-39
2023/10/18 12:00:55;;;;;;;24.92;9.98;;;;;;;;;;5006011;28;20044;-39
2023/10/18 12:03:27;;;;;;;18.48;9.35;;;;;;;;;;4966549;28;20099;-39
2023/10/18 12:05:56;;;;;;;18.35;9.00;;;;;;;;;;4996123;28;20128;-39
2023/10/18 12:08:24;;;;;;;18.33;9.03;;;;;;;;;;4993782;28;20200;-39
2023/10/18 12:10:53;;;;;;;22.02;10.18;;;;;;;;;;4992560;28;20037;-39
2023/10/18 12:13:21;;;;;;;22.40;9.10;;;;;;;;;;4987640;28;20059;-39
2023/10/18 12:15:49;;;;;;;22.60;9.55;;;;;;;;;;4982854;28;20049;-39
2023/10/18 12:18:21;;;;;;;24.48;9.50;;;;;;;;;;4994203;28;20049;-39
2023/10/18 12:20:51;;;;;;;20.90;9.27;;;;;;;;;;4983557;28;20048;-40
2023/10/18 12:23:19;;;;;;;22.95;9.57;;;;;;;;;;4997408;28;20084;-39
2023/10/18 12:25:47;;;;;;;21.95;9.18;;;;;;;;;;4976647;28;20037;-39
2023/10/18 12:28:18;;;;;;;22.70;10.25;;;;;;;;;;4989157;28;20503;-39
2023/10/18 12:30:51;;;;;;;21.98;8.85;;;;;;;;;;4993303;28;21957;-39
2023/10/18 12:33:23;;;;;;;21.50;9.37;;;;;;;;;;4629003;28;10000312;-41
2023/10/18 12:35:56;;;;;;;17.60;8.70;;;;;;;;;;4998193;28;20707;-39
2023/10/18 12:38:32;;;;;;;19.20;9.15;;;;;;;;;;4982540;28;20835;-39
2023/10/18 12:41:01;;;;;;;21.33;9.53;;;;;;;;;;5001158;28;20045;-39
2023/10/18 12:43:31;;;;;;;23.05;8.50;;;;;;;;;;4975135;28;20741;-39
2023/10/18 12:46:00;;;;;;;22.33;9.10;;;;;;;;;;4989775;28;20040;-39
2023/10/18 12:48:28;;;;;;;18.92;8.30;;;;;;;;;;4990804;28;20946;-39
2023/10/18 12:51:07;;;;;;;23.80;9.43;;;;;;;;;;4997454;28;20055;-39
2023/10/18 12:53:41;;;;;;;21.23;9.33;;;;;;;;;;4983765;28;20421;-39
2023/10/18 12:56:31;;;;;;;15.88;8.25;;;;;;;;;;5000006;28;20067;-39
2023/10/18 12:58:58;;;;;;;19.20;8.02;;;;;;;;;;4990826;28;20048;-41
2023/10/18 13:01:43;;;;;;;20.52;8.43;;;;;;;;;;4994178;28;20056;-39
2023/10/18 13:04:17;;;;;;;19.17;8.30;;;;;;;;;;4983449;28;20059;-39
2023/10/18 13:06:47;;;;;;;26.60;9.40;;;;;;;;;;4980319;28;20049;-38
2023/10/18 13:09:21;;;;;;;16.45;8.75;;;;;;;;;;4993500;28;20060;-39
2023/10/18 13:12:00;;;;;;;20.08;8.88;;;;;;;;;;4651521;28;10000616;-40
2023/10/18 13:14:32;;;;;;;13.27;5.90;;;;;;;;;;4965639;28;20071;-40
2023/10/18 13:17:05;;;;;;;17.20;7.47;;;;;;;;;;4999781;28;20531;-39
2023/10/18 13:19:33;;;;;;;21.70;7.70;;;;;;;;;;5000569;28;20057;-39
2023/10/18 13:22:12;;;;;;;16.07;8.20;;;;;;;;;;4992671;28;20509;-38
2023/10/18 13:24:43;;;;;;;16.23;7.00;;;;;;;;;;4990467;28;20655;-38
2023/10/18 13:27:15;;;;;;;17.35;7.97;;;;;;;;;;5004199;28;20492;-39
2023/10/18 13:30:00;;;;;;;14.55;7.53;;;;;;;;;;4986068;28;20136;-39
2023/10/18 13:32:29;;;;;;;19.60;8.63;;;;;;;;;;5002181;28;20055;-38
2023/10/18 13:34:58;;;;;;;17.23;7.60;;;;;;;;;;4988266;28;20060;-39
2023/10/18 13:37:27;;;;;;;16.88;7.38;;;;;;;;;;4998804;28;20044;-38
2023/10/18 13:39:55;;;;;;;15.75;7.55;;;;;;;;;;4994020;28;20041;-39
2023/10/18 13:42:23;;;;;;;18.20;7.75;;;;;;;;;;4998965;28;20043;-39
2023/10/18 13:44:52;;;;;;;14.25;7.53;;;;;;;;;;4985908;28;20032;-38
2023/10/18 13:47:20;;;;;;;18.47;7.57;;;;;;;;;;4999699;28;20519;-40
2023/10/18 13:49:50;;;;;;;19.05;8.15;;;;;;;;;;5008211;28;20454;-38
2023/10/18 13:52:19;;;;;;;16.88;7.90;;;;;;;;;;4995086;28;20483;-38
2023/10/18 13:54:49;;;;;;;19.27;7.85;;;;;;;;;;4967223;28;20425;-38
2023/10/18 13:57:17;;;;;;;20.63;8.30;;;;;;;;;;5003691;28;20064;-39
2023/10/18 13:59:44;;;;;;;17.97;7.97;;;;;;;;;;4973845;28;20044;-38
2023/10/18 14:02:17;;;;;;;15.07;7.55;;;;;;;;;;4994593;28;20414;-40
2023/10/18 14:04:46;;;;;;;20.48;7.07;;;;;;;;;;4974267;28;20060;-39
2023/10/18 14:07:15;;;;;;;17.17;8.00;;;;;;;;;;5002460;28;20601;-39
2023/10/18 14:09:44;;;;;;;16.20;7.50;;;;;;;;;;4992039;28;20612;-39
2023/10/18 14:12:13;;;;;;;15.63;7.37;;;;;;;;;;4990079;28;20427;-38
2023/10/18 14:14:41;;;;;;;19.05;8.73;;;;;;;;;;4985594;28;20120;-39
2023/10/18 14:17:11;;;;;;;21.88;8.40;;;;;;;;;;4993517;28;20049;-38
2023/10/18 14:19:42;;;;;;;21.15;8.10;;;;;;;;;;4992989;28;20056;-38
2023/10/18 14:22:13;;;;;;;24.15;8.45;;;;;;;;;;5000408;28;20215;-39
2023/10/18 14:24:40;;;;;;;17.77;7.87;;;;;;;;;;4982309;28;20103;-39
2023/10/18 14:27:09;;;;;;;15.98;7.22;;;;;;;;;;5003209;28;20037;-39
2023/10/18 14:29:39;;;;;;;18.08;8.05;;;;;;;;;;4983524;28;20139;-39
2023/10/18 14:32:08;;;;;;;19.17;8.18;;;;;;;;;;4998409;28;20056;-38
2023/10/18 14:34:39;;;;;;;18.25;8.15;;;;;;;;;;4994004;28;20049;-38
2023/10/18 14:37:06;;;;;;;18.07;8.13;;;;;;;;;;4989865;28;20037;-38
2023/10/18 14:39:34;;;;;;;18.77;8.60;;;;;;;;;;5002684;28;20056;-39
2023/10/18 14:42:10;;;;;;;16.92;9.25;;;;;;;;;;4978709;28;20095;-39
2023/10/18 14:44:39;;;;;;;23.00;8.90;;;;;;;;;;4970138;28;20057;-38
2023/10/18 14:47:08;;;;;;;16.42;8.40;;;;;;;;;;4987459;28;20606;-39
2023/10/18 14:49:39;;;;;;;21.27;8.43;;;;;;;;;;4994756;28;20958;-39
2023/10/18 14:52:11;;;;;;;17.60;7.95;;;;;;;;;;4997629;28;20132;-39
2023/10/18 14:54:40;;;;;;;20.48;8.30;;;;;;;;;;4971699;28;20036;-38
2023/10/18 14:57:12;;;;;;;17.90;8.23;;;;;;;;;;5008030;28;20091;-40
2023/10/18 14:59:42;;;;;;;16.25;8.48;;;;;;;;;;4993896;28;20049;-38
2023/10/18 15:02:13;;;;;;;20.27;9.27;;;;;;;;;;4996488;28;20037;-39
2023/10/18 15:04:41;;;;;;;25.42;9.48;;;;;;;;;;4977985;28;20041;-38
2023/10/18 15:07:09;;;;;;;18.95;8.07;;;;;;;;;;4991129;28;20090;-39